Time;durP1;ratioP1;P1;durP2;ratioP2;P2;SDS_P1;SDS_P2;PMS_P1;PMS_P2;Temp;Humidity;BMP_temperature;BMP_pressure;BME280_temperature;BME280_humidity;BME280_pressure;Samples;Min_cycle;Max_cycle;Signal;HPM_P1;HPM_P2
2022/05/27 00:01:17;;;;;;;2.87;2.67;;;;;;;14.10;100.00;100426.97;5071675;28;20262;-72
2022/05/27 00:03:42;;;;;;;3.10;2.90;;;;;;;14.07;100.00;100428.44;5071559;28;20197;-72
2022/05/27 00:06:08;;;;;;;3.43;3.07;;;;;;;14.07;100.00;100428.44;5071856;28;20171;-72
2022/05/27 00:08:34;;;;;;;2.13;1.97;;;;;;;14.08;100.00;100435.53;5071312;28;20218;-72
2022/05/27 00:11:00;;;;;;;6.87;5.00;;;;;;;14.07;100.00;100436.69;5071540;28;20225;-72
2022/05/27 00:13:27;;;;;;;4.70;4.30;;;;;;;14.09;100.00;100422.59;5071622;28;20179;-72
2022/05/27 00:15:53;;;;;;;17.47;6.17;;;;;;;14.12;100.00;100430.16;5071556;28;20167;-72
2022/05/27 00:18:19;;;;;;;3.90;3.60;;;;;;;14.13;100.00;100427.09;5071340;28;20254;-72
2022/05/27 00:20:45;;;;;;;9.77;3.20;;;;;;;14.15;100.00;100413.00;5071342;28;20577;-72
2022/05/27 00:23:11;;;;;;;5.37;4.90;;;;;;;14.15;100.00;100413.81;5071294;28;20184;-72
2022/05/27 00:25:36;;;;;;;3.60;3.40;;;;;;;14.18;100.00;100410.41;5071482;28;20253;-72
2022/05/27 00:28:02;;;;;;;4.83;3.87;;;;;;;14.18;100.00;100410.41;5071184;28;20182;-72
2022/05/27 00:30:28;;;;;;;2.87;2.67;;;;;;;14.20;100.00;100410.06;5069605;28;20289;-72
2022/05/27 00:32:54;;;;;;;3.93;3.10;;;;;;;14.20;100.00;100408.13;5071111;28;20182;-72
2022/05/27 00:35:20;;;;;;;2.87;2.67;;;;;;;14.21;100.00;100409.75;5071370;28;20261;-73
2022/05/27 00:37:46;;;;;;;3.20;2.87;;;;;;;14.21;100.00;100403.44;5071455;28;20265;-72
2022/05/27 00:40:13;;;;;;;2.60;2.00;;;;;;;14.22;100.00;100399.56;5071248;28;20258;-72
2022/05/27 00:42:40;;;;;;;2.90;2.70;;;;;;;14.20;100.00;100404.59;5071195;28;20166;-72
2022/05/27 00:45:06;;;;;;;2.60;2.50;;;;;;;14.20;100.00;100394.41;5071421;28;20182;-72
2022/05/27 00:47:35;;;;;;;4.47;4.07;;;;;;;14.22;100.00;100400.34;5070701;28;20203;-73
2022/05/27 00:50:05;;;;;;;5.13;4.73;;;;;;;14.21;100.00;100397.94;5071250;28;20572;-72
2022/05/27 00:52:34;;;;;;;3.17;2.63;;;;;;;14.22;100.00;100400.34;5071001;28;20273;-72
2022/05/27 00:55:01;;;;;;;13.37;5.07;;;;;;;14.22;100.00;100383.06;5071096;28;20232;-72
2022/05/27 00:57:37;;;;;;;3.40;3.20;;;;;;;14.24;100.00;100397.25;5070746;28;20642;-72
2022/05/27 01:00:09;;;;;;;2.73;2.53;;;;;;;14.26;100.00;100390.28;5071017;28;20186;-73
2022/05/27 01:02:36;;;;;;;1.87;1.77;;;;;;;14.28;100.00;100387.19;5071228;28;20578;-72
2022/05/27 01:05:03;;;;;;;2.07;1.97;;;;;;;14.29;100.00;100389.59;5070894;28;20197;-72
2022/05/27 01:07:29;;;;;;;2.93;2.73;;;;;;;14.30;100.00;100395.91;5070778;28;20177;-73
2022/05/27 01:09:55;;;;;;;4.07;3.73;;;;;;;14.27;100.00;100394.63;5070722;28;20175;-72
2022/05/27 01:12:23;;;;;;;12.23;5.07;;;;;;;14.23;100.00;100385.47;5070700;28;20638;-72
2022/05/27 01:15:08;;;;;;;7.83;4.90;;;;;;;14.20;100.00;100390.84;5070746;28;20175;-72
2022/05/27 01:17:43;;;;;;;4.60;4.23;;;;;;;14.16;100.00;100370.66;5070722;28;20312;-72
2022/05/27 01:20:19;;;;;;;2.23;2.03;;;;;;;14.13;100.00;100372.13;5071052;28;20170;-72
2022/05/27 01:23:03;;;;;;;3.00;2.77;;;;;;;14.11;100.00;100371.66;5070803;28;20216;-72
2022/05/27 01:26:03;;;;;;;6.90;5.10;;;;;;;14.06;100.00;100366.41;5070796;28;20174;-72
2022/05/27 01:29:03;;;;;;;1.80;1.70;;;;;;;14.06;100.00;100371.88;5070629;28;20187;-72
2022/05/27 01:31:55;;;;;;;10.00;3.93;;;;;;;14.02;100.00;100375.63;5070578;28;20194;-72
2022/05/27 01:34:29;;;;;;;3.37;3.07;;;;;;;14.01;100.00;100369.31;5070495;28;20165;-72
2022/05/27 01:37:07;;;;;;;2.73;2.53;;;;;;;14.03;100.00;100375.28;5071118;28;20640;-72
2022/05/27 01:39:48;;;;;;;1.87;1.77;;;;;;;14.07;100.00;100381.72;5070588;28;20185;-72
2022/05/27 01:42:23;;;;;;;3.33;3.10;;;;;;;14.08;100.00;100372.34;5073141;28;20531;-72
2022/05/27 01:44:54;;;;;;;1.30;1.00;;;;;;;14.05;100.00;100381.28;5074232;28;20178;-72
2022/05/27 01:47:36;;;;;;;2.73;2.53;;;;;;;14.04;100.00;100371.44;5074088;28;20202;-72
2022/05/27 01:50:25;;;;;;;2.87;2.60;;;;;;;13.98;100.00;100378.25;5074333;28;20165;-72
2022/05/27 01:53:02;;;;;;;2.13;2.03;;;;;;;13.92;100.00;100380.41;5069814;28;20548;-72
2022/05/27 01:55:36;;;;;;;1.17;1.03;;;;;;;13.85;100.00;100368.31;5074098;28;20190;-72
2022/05/27 01:58:10;;;;;;;1.33;1.23;;;;;;;13.81;100.00;100370.16;5074230;28;20595;-72
2022/05/27 02:00:39;;;;;;;0.57;0.57;;;;;;;13.76;100.00;100368.41;5073754;28;20197;-73
2022/05/27 02:03:12;;;;;;;2.27;1.90;;;;;;;13.72;100.00;100352.91;5073904;28;20183;-72
2022/05/27 02:05:48;;;;;;;1.83;1.73;;;;;;;13.62;100.00;100354.16;5073919;28;20170;-72
2022/05/27 02:08:21;;;;;;;1.57;1.47;;;;;;;13.57;100.00;100355.13;5073889;28;20169;-72
2022/05/27 02:11:06;;;;;;;0.50;0.50;;;;;;;13.51;100.00;100359.22;5073687;28;20194;-72
2022/05/27 02:13:39;;;;;;;0.63;0.63;;;;;;;13.47;100.00;100358.28;5073692;28;20191;-72
2022/05/27 02:16:10;;;;;;;1.10;1.10;;;;;;;13.45;100.00;100352.28;5073809;28;20196;-72
2022/05/27 02:19:20;;;;;;;1.67;1.57;;;;;;;13.39;100.00;100345.41;5073807;28;20198;-72
2022/05/27 02:22:00;;;;;;;1.87;1.77;;;;;;;13.36;100.00;100343.34;4991764;28;20189;-73
2022/05/27 02:24:37;;;;;;;2.30;2.20;;;;;;;13.34;100.00;100338.19;5070580;28;20197;-72
2022/05/27 02:27:27;;;;;;;2.23;2.13;;;;;;;13.32;100.00;100345.13;5073641;28;20167;-72
2022/05/27 02:29:57;;;;;;;1.67;1.57;;;;;;;13.31;100.00;100332.56;5073620;28;20167;-73
2022/05/27 02:32:29;;;;;;;0.40;0.40;;;;;;;13.30;100.00;100334.47;5073374;28;20163;-72
2022/05/27 02:35:10;;;;;;;1.00;0.93;;;;;;;13.32;100.00;100334.16;5073415;28;20174;-73
2022/05/27 02:37:44;;;;;;;0.73;0.73;;;;;;;13.31;100.00;100330.63;5073268;28;20158;-73
2022/05/27 02:40:33;;;;;;;1.63;1.53;;;;;;;13.28;100.00;100322.22;5073256;28;20174;-72
2022/05/27 02:43:20;;;;;;;0.73;0.73;;;;;;;13.27;100.00;100337.09;5073318;28;20193;-72
2022/05/27 02:46:12;;;;;;;1.30;1.20;;;;;;;13.28;100.00;100333.19;5073197;28;20675;-72
2022/05/27 02:48:52;;;;;;;2.67;1.60;;;;;;;13.25;100.00;100336.63;5072955;28;20178;-72
2022/05/27 02:51:39;;;;;;;0.10;0.10;;;;;;;13.27;100.00;100370.00;5072844;28;20190;-72
2022/05/27 02:54:17;;;;;;;1.27;1.27;;;;;;;13.29;100.00;100382.25;5072926;28;20182;-73
2022/05/27 02:56:49;;;;;;;2.93;1.00;;;;;;;13.26;100.00;100391.16;5073349;28;20166;-72
2022/05/27 02:59:17;;;;;;;0.53;0.53;;;;;;;13.06;100.00;100408.31;5072964;28;20178;-72
2022/05/27 03:01:44;;;;;;;0.13;0.13;;;;;;;12.81;100.00;100408.09;5076918;28;20175;-73
2022/05/27 03:04:09;;;;;;;0.10;0.10;;;;;;;12.75;100.00;100414.06;5075260;28;20199;-73
2022/05/27 03:06:42;;;;;;;0.20;0.20;;;;;;;12.55;100.00;100412.81;5073081;28;20255;-72
2022/05/27 03:09:19;;;;;;;0.00;0.00;;;;;;;12.49;100.00;100419.59;5072887;28;20244;-72
2022/05/27 03:12:05;;;;;;;0.00;0.00;;;;;;;12.51;100.00;100425.56;5073152;28;20198;-72
2022/05/27 03:14:52;;;;;;;0.00;0.00;;;;;;;12.43;100.00;100432.66;5072765;28;20159;-72
2022/05/27 03:17:52;;;;;;;0.10;0.10;;;;;;;12.39;100.00;100450.88;5072559;28;20250;-72
2022/05/27 03:20:29;;;;;;;0.10;0.10;;;;;;;12.30;100.00;100436.41;5052600;28;20194;-72
2022/05/27 03:23:04;;;;;;;0.30;0.30;;;;;;;12.23;100.00;100427.03;5072502;28;20166;-72
2022/05/27 03:25:51;;;;;;;0.53;0.40;;;;;;;12.12;100.00;100427.34;5072761;28;20174;-72
2022/05/27 03:28:29;;;;;;;0.93;0.70;;;;;;;12.05;100.00;100412.53;5072482;28;20587;-72
2022/05/27 03:31:00;;;;;;;0.57;0.13;;;;;;;12.00;100.00;100420.91;5072372;28;20194;-72
2022/05/27 03:33:37;;;;;;;0.00;0.00;;;;;;;11.93;100.00;100426.06;5072649;28;20178;-72
2022/05/27 03:36:27;;;;;;;0.00;0.00;;;;;;;11.88;100.00;100388.69;5072381;28;20174;-72
2022/05/27 03:39:01;;;;;;;0.20;0.20;;;;;;;11.82;100.00;100409.94;5071754;28;20623;-72
2022/05/27 03:41:33;;;;;;;0.40;0.40;;;;;;;11.78;100.00;100419.91;5072232;28;20174;-72
2022/05/27 03:43:58;;;;;;;0.10;0.10;;;;;;;11.72;100.00;100434.06;5072112;28;20240;-72
2022/05/27 03:46:33;;;;;;;0.10;0.10;;;;;;;11.67;100.00;100432.25;5072089;28;20254;-72
2022/05/27 03:48:59;;;;;;;0.03;0.03;;;;;;;11.69;100.00;100445.63;5072077;28;20174;-72
2022/05/27 03:51:29;;;;;;;0.33;0.33;;;;;;;11.68;100.00;100435.81;5071901;28;20673;-73
2022/05/27 03:54:04;;;;;;;0.20;0.20;;;;;;;11.70;100.00;100428.88;5072265;28;20283;-72
2022/05/27 03:56:34;;;;;;;0.50;0.47;;;;;;;11.69;100.00;100421.78;5072042;28;20181;-72
2022/05/27 03:59:01;;;;;;;0.43;0.43;;;;;;;11.68;100.00;100431.13;5071673;28;20167;-72
2022/05/27 04:01:29;;;;;;;0.00;0.00;;;;;;;11.66;100.00;100432.59;5071742;28;20179;-72
2022/05/27 04:03:59;;;;;;;0.50;0.50;;;;;;;11.68;100.00;100431.13;5070796;28;20255;-72
2022/05/27 04:06:27;;;;;;;0.10;0.10;;;;;;;11.65;100.00;100447.38;5072057;28;20606;-72
2022/05/27 04:08:53;;;;;;;0.10;0.10;;;;;;;11.66;100.00;100441.59;5071598;28;20182;-72
2022/05/27 04:11:19;;;;;;;0.33;0.33;;;;;;;11.67;100.00;100445.94;5071698;28;20202;-72
2022/05/27 04:13:45;;;;;;;0.70;0.70;;;;;;;11.68;100.00;100441.28;5072030;28;20316;-72
2022/05/27 04:16:10;;;;;;;0.30;0.30;;;;;;;11.71;100.00;100441.44;5071529;28;20701;-73
2022/05/27 04:18:35;;;;;;;0.57;0.50;;;;;;;11.75;100.00;100456.13;5071410;28;20182;-72
2022/05/27 04:21:01;;;;;;;0.10;0.10;;;;;;;11.75;100.00;100456.13;5071627;28;20206;-72
2022/05/27 04:23:26;;;;;;;0.33;0.33;;;;;;;11.76;100.00;100457.72;5071570;28;20666;-73
2022/05/27 04:25:51;;;;;;;4.33;0.70;;;;;;;11.79;100.00;100459.84;5071300;28;20185;-72
2022/05/27 04:28:17;;;;;;;0.00;0.00;;;;;;;11.80;100.00;100458.72;5071060;28;20167;-73
2022/05/27 04:30:45;;;;;;;0.97;0.50;;;;;;;11.83;100.00;100458.09;5071252;28;20198;-72
2022/05/27 04:33:10;;;;;;;0.90;0.77;;;;;;;11.89;100.00;100462.28;5071242;28;20177;-72
2022/05/27 04:35:36;;;;;;;0.87;0.60;;;;;;;11.93;100.00;100459.72;5071358;28;20261;-73
2022/05/27 04:38:02;;;;;;;4.07;0.30;;;;;;;11.96;100.00;100459.06;5071245;28;20170;-72
2022/05/27 04:40:28;;;;;;;0.77;0.77;;;;;;;11.99;100.00;100458.44;5071351;28;20206;-72
2022/05/27 04:42:53;;;;;;;0.47;0.43;;;;;;;12.04;100.00;100463.78;5071314;28;20259;-73
2022/05/27 04:45:21;;;;;;;1.27;0.80;;;;;;;12.08;100.00;100467.47;5071028;28;20186;-73
2022/05/27 04:47:47;;;;;;;0.30;0.30;;;;;;;12.12;100.00;100459.41;5071445;28;20202;-72
2022/05/27 04:50:12;;;;;;;2.73;1.33;;;;;;;12.15;100.00;100466.97;5071096;28;20205;-73
2022/05/27 04:52:39;;;;;;;2.17;2.07;;;;;;;12.15;100.00;100447.81;5070875;28;20170;-73
2022/05/27 04:55:07;;;;;;;0.77;0.77;;;;;;;12.19;100.00;100462.50;5071165;28;20177;-73
2022/05/27 04:57:46;;;;;;;0.60;0.60;;;;;;;12.19;100.00;100473.44;5070700;28;20597;-72
2022/05/27 05:00:21;;;;;;;2.77;1.07;;;;;;;12.22;100.00;100459.09;5071057;28;20630;-72
2022/05/27 05:02:47;;;;;;;0.83;0.83;;;;;;;12.24;100.00;100464.25;5070863;28;20517;-73
2022/05/27 05:05:15;;;;;;;1.20;1.00;;;;;;;12.26;100.00;100465.53;5071099;28;20574;-72
2022/05/27 05:07:43;;;;;;;1.13;0.70;;;;;;;12.29;100.00;100467.63;5070874;28;20163;-72
2022/05/27 05:10:10;;;;;;;0.93;0.93;;;;;;;12.32;100.00;100471.69;5070869;28;20642;-72
2022/05/27 05:12:39;;;;;;;1.67;1.57;;;;;;;12.34;100.00;100472.16;5070867;28;20217;-73
2022/05/27 05:15:05;;;;;;;1.10;1.00;;;;;;;12.34;100.00;100472.16;5071609;28;20174;-72
2022/05/27 05:17:30;;;;;;;0.20;0.20;;;;;;;12.37;100.00;100475.06;5074474;28;20268;-72
2022/05/27 05:19:56;;;;;;;0.70;0.70;;;;;;;12.40;100.00;100485.38;5074824;28;20170;-72
2022/05/27 05:22:22;;;;;;;0.80;0.80;;;;;;;12.41;100.00;100480.69;5074868;28;20174;-73
2022/05/27 05:24:48;;;;;;;3.03;1.37;;;;;;;12.43;100.00;100487.44;5074822;28;20170;-72
2022/05/27 05:27:14;;;;;;;0.90;0.90;;;;;;;12.45;100.00;100487.16;5074738;28;20705;-72
2022/05/27 05:29:39;;;;;;;1.87;1.03;;;;;;;12.46;100.00;100486.84;5074701;28;20179;-72
2022/05/27 05:32:05;;;;;;;0.37;0.37;;;;;;;12.47;100.00;100487.63;5073241;28;20202;-72
2022/05/27 05:34:31;;;;;;;1.00;1.00;;;;;;;12.46;100.00;100506.00;5074668;28;20170;-72
2022/05/27 05:36:56;;;;;;;0.93;0.93;;;;;;;12.48;100.00;100491.97;5074583;28;20171;-73
2022/05/27 05:39:23;;;;;;;5.53;2.93;;;;;;;12.48;100.00;100500.22;5074331;28;20167;-72
2022/05/27 05:41:58;;;;;;;0.50;0.50;;;;;;;12.51;100.00;100497.63;5074149;28;20811;-72
2022/05/27 05:44:24;;;;;;;0.87;0.67;;;;;;;12.55;100.00;100503.25;5074359;28;20182;-72
2022/05/27 05:46:49;;;;;;;0.93;0.67;;;;;;;12.56;100.00;100493.91;5074321;28;20171;-71
2022/05/27 05:49:15;;;;;;;0.47;0.47;;;;;;;12.66;100.00;100495.50;5074276;28;20293;-72
2022/05/27 05:51:40;;;;;;;4.83;0.83;;;;;;;12.68;100.00;100505.03;5074286;28;20673;-72
2022/05/27 05:54:07;;;;;;;1.90;1.33;;;;;;;12.75;100.00;100508.09;5074478;28;20225;-72
2022/05/27 05:56:33;;;;;;;4.00;0.60;;;;;;;12.80;100.00;100510.66;5074182;28;20622;-73
2022/05/27 05:58:59;;;;;;;0.50;0.50;;;;;;;12.84;100.00;100518.22;5074156;28;20178;-72
2022/05/27 06:01:25;;;;;;;0.60;0.60;;;;;;;12.85;100.00;100514.34;5074172;28;20258;-72
2022/05/27 06:03:51;;;;;;;4.20;1.83;;;;;;;12.86;100.00;100511.28;5073735;28;20195;-73
2022/05/27 06:06:17;;;;;;;0.83;0.83;;;;;;;12.80;100.00;100510.66;5073681;28;20461;-72
2022/05/27 06:08:42;;;;;;;1.93;0.50;;;;;;;12.83;100.00;100514.69;5073707;28;20182;-73
2022/05/27 06:11:08;;;;;;;0.57;0.57;;;;;;;12.94;100.00;100506.94;5073891;28;20229;-73
2022/05/27 06:13:35;;;;;;;0.07;0.07;;;;;;;13.04;100.00;100514.81;5072531;28;20186;-73
2022/05/27 06:16:01;;;;;;;1.40;1.03;;;;;;;13.15;100.00;100505.09;5073903;28;20175;-73
2022/05/27 06:18:27;;;;;;;11.13;1.67;;;;;;;13.27;100.00;100498.97;5073540;28;20174;-73
2022/05/27 06:20:52;;;;;;;12.40;1.30;;;;;;;13.30;100.00;100496.34;5072321;28;20193;-74
2022/05/27 06:23:17;;;;;;;1.60;1.50;;;;;;;13.24;100.00;100494.13;5073713;28;20642;-73
2022/05/27 06:25:43;;;;;;;8.00;0.63;;;;;;;13.30;100.00;100490.06;5073750;28;20221;-74
2022/05/27 06:36:20;;;;;;;0.20;0.20;;;;;;;13.45;100.00;100489.53;5073663;28;20182;-74
2022/05/27 06:38:46;;;;;;;1.67;1.10;;;;;;;13.59;100.00;100487.34;5073477;28;20618;-73
2022/05/27 06:41:12;;;;;;;1.67;1.23;;;;;;;13.50;100.00;100497.59;5073199;28;20269;-72
2022/05/27 06:43:37;;;;;;;3.77;0.90;;;;;;;13.53;99.33;100493.38;5073269;28;20539;-73
2022/05/27 06:46:03;;;;;;;0.00;0.00;;;;;;;13.57;98.50;100503.34;5073532;28;20277;-73
2022/05/27 06:48:28;;;;;;;0.40;0.40;;;;;;;13.75;99.20;100500.56;5073384;28;20182;-73
2022/05/27 06:50:54;;;;;;;0.10;0.10;;;;;;;13.88;98.49;100504.97;5073306;28;20217;-73
2022/05/27 06:53:20;;;;;;;0.97;0.97;;;;;;;13.89;95.78;100523.91;5073034;28;20181;-73
2022/05/27 06:55:50;;;;;;;0.73;0.53;;;;;;;13.85;93.88;100516.63;5072892;28;20626;-73
2022/05/27 06:58:15;;;;;;;1.03;0.70;;;;;;;13.84;94.58;100520.53;5072507;28;20178;-76
2022/05/27 07:00:41;;;;;;;1.17;1.07;;;;;;;13.83;94.47;100525.22;5073008;28;20179;-73
2022/05/27 07:03:07;;;;;;;0.10;0.10;;;;;;;13.81;93.55;100538.47;5073311;28;20177;-73
2022/05/27 07:05:33;;;;;;;0.40;0.40;;;;;;;13.86;95.63;100530.03;5073062;28;20178;-72
2022/05/27 07:07:58;;;;;;;0.00;0.00;;;;;;;13.91;95.54;100532.59;5073134;28;20569;-72
2022/05/27 07:10:24;;;;;;;3.70;1.70;;;;;;;13.89;91.78;100539.56;5072936;28;20181;-76
2022/05/27 07:12:49;;;;;;;0.53;0.53;;;;;;;13.78;89.09;100530.09;5073020;28;20186;-75
2022/05/27 07:15:16;;;;;;;0.90;0.90;;;;;;;13.70;87.63;100535.28;5072625;28;20540;-72
2022/05/27 07:17:41;;;;;;;0.40;0.40;;;;;;;13.73;87.81;100533.00;5072528;28;20171;-73
2022/05/27 07:20:08;;;;;;;0.30;0.30;;;;;;;13.81;87.58;100534.91;5072354;28;20174;-73
2022/05/27 07:22:33;;;;;;;0.80;0.80;;;;;;;13.77;85.25;100526.53;5070925;28;20578;-74
2022/05/27 07:24:58;;;;;;;0.40;0.40;;;;;;;13.78;85.09;100527.34;5072425;28;20178;-74
2022/05/27 07:27:24;;;;;;;0.27;0.20;;;;;;;13.79;86.32;100538.00;5072328;28;20201;-75
2022/05/27 07:29:49;;;;;;;0.40;0.40;;;;;;;13.86;89.87;100529.22;5072643;28;20494;-74
2022/05/27 07:32:15;;;;;;;0.53;0.53;;;;;;;13.84;88.91;100526.00;5072195;28;20206;-75
2022/05/27 07:34:40;;;;;;;0.67;0.67;;;;;;;13.86;87.24;100526.47;5072154;28;20210;-73
2022/05/27 07:37:06;;;;;;;0.00;0.00;;;;;;;13.80;83.06;100530.56;5072160;28;20170;-76
2022/05/27 07:39:31;;;;;;;0.10;0.10;;;;;;;13.92;83.53;100511.44;5070512;28;20295;-75
2022/05/27 07:41:57;;;;;;;0.23;0.23;;;;;;;14.09;86.75;100516.81;5068696;28;20174;-74
2022/05/27 07:44:22;;;;;;;5.60;1.00;;;;;;;14.26;87.08;100515.91;5071842;28;20193;-74
2022/05/27 07:46:51;;;;;;;1.80;1.23;;;;;;;14.44;86.00;100519.34;5071860;28;20619;-74
2022/05/27 07:49:17;;;;;;;0.70;0.70;;;;;;;14.65;84.73;100519.34;5072031;28;20230;-73
2022/05/27 07:51:42;;;;;;;0.47;0.47;;;;;;;14.72;81.46;100514.91;5071745;28;20286;-73
2022/05/27 07:54:08;;;;;;;0.60;0.60;;;;;;;14.75;80.03;100521.66;5072053;28;20186;-72
2022/05/27 07:56:33;;;;;;;0.63;0.63;;;;;;;14.67;80.56;100522.56;5072096;28;20250;-74
2022/05/27 07:58:59;;;;;;;2.30;1.50;;;;;;;14.62;78.43;100518.09;5071269;28;20177;-73
2022/05/27 08:01:24;;;;;;;7.03;1.67;;;;;;;14.49;76.20;100519.97;5071928;28;20630;-75
2022/05/27 08:03:49;;;;;;;0.50;0.40;;;;;;;14.45;77.44;100523.69;5072043;28;20261;-73
2022/05/27 08:06:15;;;;;;;0.20;0.20;;;;;;;14.41;78.25;100522.75;5071753;28;20186;-73
2022/05/27 08:08:40;;;;;;;1.30;0.60;;;;;;;14.30;78.48;100525.06;5071628;28;20264;-73
2022/05/27 08:11:07;;;;;;;0.53;0.53;;;;;;;14.43;77.41;100517.72;5071476;28;20209;-73
2022/05/27 08:13:33;;;;;;;0.30;0.27;;;;;;;14.64;76.27;100526.81;5071402;28;20174;-72
2022/05/27 08:15:58;;;;;;;0.10;0.10;;;;;;;14.92;76.07;100520.72;5071657;28;20296;-73
2022/05/27 08:18:24;;;;;;;0.20;0.20;;;;;;;14.95;71.18;100537.34;5071448;28;20253;-73
2022/05/27 08:20:50;;;;;;;0.20;0.20;;;;;;;14.81;70.95;100529.41;5066941;28;20182;-74
2022/05/27 08:23:15;;;;;;;0.40;0.30;;;;;;;14.72;71.75;100545.16;5071283;28;20182;-73
2022/05/27 08:25:41;;;;;;;0.37;0.37;;;;;;;14.87;74.08;100529.97;5070852;28;20186;-73
2022/05/27 08:28:07;;;;;;;0.70;0.53;;;;;;;14.90;69.69;100532.06;5071098;28;20261;-73
2022/05/27 08:30:35;;;;;;;0.13;0.13;;;;;;;15.08;70.76;100525.25;5071472;28;20233;-74
2022/05/27 08:33:01;;;;;;;0.80;0.80;;;;;;;15.30;71.06;100525.97;5071257;28;20190;-74
2022/05/27 08:38:17;;;;;;;0.10;0.10;;;;;;;15.28;67.79;100526.31;5071446;28;20518;-73
2022/05/27 08:40:48;;;;;;;2.10;0.40;;;;;;;15.12;67.36;100523.41;5070694;28;20175;-73
2022/05/27 08:43:30;;;;;;;11.03;0.83;;;;;;;15.07;68.37;100523.66;5071134;28;20555;-73
2022/05/27 08:46:09;;;;;;;0.30;0.30;;;;;;;15.04;70.31;100518.78;5070279;28;20207;-73
2022/05/27 08:48:38;;;;;;;0.53;0.47;;;;;;;15.04;70.45;100524.28;5067209;28;20170;-74
2022/05/27 08:51:14;;;;;;;1.00;1.00;;;;;;;14.99;70.94;100519.03;5062619;28;20205;-73
2022/05/27 08:53:50;;;;;;;3.50;0.23;;;;;;;14.86;70.00;100518.16;5069645;28;20239;-72
2022/05/27 08:59:26;;;;;;;0.50;0.50;;;;;;;15.14;71.89;100520.31;5070825;28;20250;-72
2022/05/27 09:01:56;;;;;;;0.40;0.40;;;;;;;15.25;68.53;100516.00;5070642;28;20178;-73
2022/05/27 09:04:33;;;;;;;2.00;0.83;;;;;;;15.42;67.70;100510.28;5070940;28;20206;-73
2022/05/27 09:07:25;;;;;;;0.50;0.50;;;;;;;15.42;66.85;100524.06;5069714;28;20202;-73
2022/05/27 09:09:51;;;;;;;0.87;0.53;;;;;;;15.69;65.83;100516.31;5069688;28;20181;-73
2022/05/27 09:12:38;;;;;;;3.87;1.40;;;;;;;15.59;64.91;100516.72;5070227;28;20198;-72
2022/05/27 09:15:27;;;;;;;0.37;0.37;;;;;;;15.57;67.25;100524.53;5066945;28;20247;-74
2022/05/27 09:17:52;;;;;;;2.00;0.93;;;;;;;15.38;66.36;100520.38;5071045;28;20182;-73
2022/05/27 09:20:24;;;;;;;0.47;0.47;;;;;;;15.17;67.42;100519.63;5070419;28;20270;-73
2022/05/27 09:23:17;;;;;;;4.13;0.97;;;;;;;15.01;68.60;100510.41;5070844;28;20175;-72
2022/05/27 09:26:06;;;;;;;0.00;0.00;;;;;;;15.19;70.47;100514.63;5070476;28;20638;-73
2022/05/27 09:29:08;;;;;;;1.27;0.40;;;;;;;15.21;69.13;100511.53;5070047;28;20167;-74
2022/05/27 09:31:49;;;;;;;0.20;0.20;;;;;;;15.36;70.36;100503.41;5067439;28;20757;-73
2022/05/27 09:34:15;;;;;;;0.57;0.57;;;;;;;15.75;71.31;100495.63;5063334;28;20193;-72
2022/05/27 09:36:44;;;;;;;1.30;0.83;;;;;;;15.91;67.51;100507.59;5069459;28;20669;-72
2022/05/27 09:39:14;;;;;;;0.77;0.53;;;;;;;15.52;66.42;100494.47;5070600;28;20186;-72
2022/05/27 09:42:12;;;;;;;0.00;0.00;;;;;;;15.41;67.45;100516.94;5058439;28;20183;-75
2022/05/27 09:44:49;;;;;;;0.10;0.10;;;;;;;15.37;67.66;100496.75;5062510;28;20194;-73
2022/05/27 09:47:16;;;;;;;1.17;0.77;;;;;;;15.31;68.09;100503.59;5050618;28;20176;-74
2022/05/27 09:49:45;;;;;;;0.77;0.77;;;;;;;15.29;69.35;100514.16;5069967;28;20190;-73
2022/05/27 09:52:10;;;;;;;0.67;0.60;;;;;;;15.12;69.41;100520.66;5069779;28;20210;-74
2022/05/27 09:54:55;;;;;;;0.50;0.43;;;;;;;14.75;75.38;100538.97;5070042;28;20638;-75
2022/05/27 09:57:29;;;;;;;0.00;0.00;;;;;;;14.26;82.28;100522.19;5069671;28;20177;-72
2022/05/27 09:59:59;;;;;;;1.97;1.87;;;;;;;13.66;83.76;100523.34;5069179;28;20514;-73
2022/05/27 10:02:30;;;;;;;0.77;0.77;;;;;;;13.27;88.78;100529.94;5071028;28;20193;-75
2022/05/27 10:05:07;;;;;;;0.10;0.10;;;;;;;13.11;92.67;100537.06;5073918;28;20254;-72
2022/05/27 10:07:42;;;;;;;0.23;0.23;;;;;;;13.15;94.95;100529.78;5073662;28;20190;-73
2022/05/27 10:10:34;;;;;;;0.67;0.30;;;;;;;13.11;95.03;100526.91;5073940;28;20177;-73
2022/05/27 10:13:22;;;;;;;6.60;0.50;;;;;;;13.28;97.17;100517.03;5073782;28;20188;-74
2022/05/27 10:15:48;;;;;;;0.10;0.10;;;;;;;13.43;97.72;100508.25;5073736;28;20293;-73
2022/05/27 10:18:15;;;;;;;0.00;0.00;;;;;;;13.65;96.42;100507.22;5073437;28;20816;-74
2022/05/27 10:20:41;;;;;;;0.80;0.80;;;;;;;13.95;96.03;100506.06;5073326;28;20174;-73
2022/05/27 10:23:11;;;;;;;0.57;0.47;;;;;;;14.03;88.52;100526.38;5072079;28;20227;-74
2022/05/27 10:25:42;;;;;;;8.37;0.77;;;;;;;14.28;88.32;100516.38;5073634;28;20249;-73
2022/05/27 10:28:10;;;;;;;0.27;0.27;;;;;;;14.50;86.77;100507.03;5073590;28;20632;-74
2022/05/27 10:30:41;;;;;;;0.50;0.50;;;;;;;14.73;83.46;100508.25;5073413;28;20669;-72
2022/05/27 10:33:18;;;;;;;0.97;0.63;;;;;;;15.01;83.67;100508.47;5073420;28;20170;-74
2022/05/27 10:35:44;;;;;;;1.17;1.00;;;;;;;15.30;81.90;100523.22;5072090;28;20227;-73
2022/05/27 10:38:22;;;;;;;3.60;1.17;;;;;;;15.34;76.85;100518.66;5073278;28;20182;-73
2022/05/27 10:41:06;;;;;;;3.13;1.93;;;;;;;15.40;76.71;100509.03;5068720;28;20186;-76
2022/05/27 10:43:54;;;;;;;4.50;0.77;;;;;;;15.48;76.83;100497.13;5072631;28;20669;-74
2022/05/27 10:46:23;;;;;;;2.50;1.63;;;;;;;15.61;78.05;100504.25;5065625;28;20179;-74
2022/05/27 10:48:58;;;;;;;2.23;0.70;;;;;;;15.84;75.07;100496.34;5072827;28;20206;-73
2022/05/27 10:51:48;;;;;;;1.47;0.90;;;;;;;15.84;71.38;100493.59;5072923;28;20208;-73
2022/05/27 10:54:42;;;;;;;1.50;0.33;;;;;;;16.07;72.86;100496.66;5073158;28;20241;-73
2022/05/27 11:02:50;;;;;;;3.50;0.47;;;;;;;16.46;70.35;100488.75;5072629;28;20190;-73
2022/05/27 11:05:36;;;;;;;2.00;0.50;;;;;;;16.44;68.40;100482.78;5072712;28;20186;-74
2022/05/27 11:08:25;;;;;;;2.17;0.80;;;;;;;16.57;69.76;100476.88;5070227;28;20278;-74
2022/05/27 11:11:21;;;;;;;1.27;0.57;;;;;;;16.58;65.25;100488.72;5072105;28;20190;-76
2022/05/27 11:17:32;;;;;;;7.73;1.77;;;;;;;16.67;62.67;100489.41;5071640;28;20189;-74
2022/05/27 11:20:35;;;;;;;1.53;0.60;;;;;;;16.49;63.76;100493.56;5041923;28;20211;-75
2022/05/27 11:23:19;;;;;;;1.50;0.60;;;;;;;15.88;64.71;100497.25;5012096;28;20239;-76
2022/05/27 11:26:20;;;;;;;0.90;0.90;;;;;;;16.02;67.29;100502.41;5009665;28;20181;-76
2022/05/27 11:28:51;;;;;;;1.27;0.40;;;;;;;16.09;67.08;100496.31;5055873;28;20224;-74
2022/05/27 11:31:35;;;;;;;0.73;0.63;;;;;;;16.19;61.93;100491.09;5071975;28;20745;-74
2022/05/27 11:34:07;;;;;;;1.13;0.87;;;;;;;16.54;62.85;100485.84;5071925;28;20539;-73
2022/05/27 11:36:47;;;;;;;0.50;0.30;;;;;;;16.83;63.97;100497.72;5071764;28;20723;-73
2022/05/27 11:39:47;;;;;;;1.30;1.20;;;;;;;17.04;62.31;100500.25;5070907;28;20181;-75
2022/05/27 11:42:38;;;;;;;1.00;0.60;;;;;;;17.13;61.49;100496.19;5071693;28;20230;-74
2022/05/27 11:45:27;;;;;;;0.70;0.70;;;;;;;16.90;59.29;100508.94;5071499;28;20225;-74
2022/05/27 11:48:07;;;;;;;1.50;0.80;;;;;;;17.00;59.07;100511.19;5071346;28;20262;-74
2022/05/27 11:50:49;;;;;;;4.63;1.03;;;;;;;17.26;58.98;100499.66;5071348;28;20174;-73
2022/05/27 11:53:28;;;;;;;2.10;0.23;;;;;;;17.51;61.37;100495.59;5071630;28;20181;-75
2022/05/27 11:56:10;;;;;;;0.90;0.70;;;;;;;17.01;55.98;100510.03;5071444;28;20174;-74
2022/05/27 11:58:44;;;;;;;0.67;0.63;;;;;;;16.92;57.65;100506.63;5071613;28;20258;-73
2022/05/27 12:01:35;;;;;;;0.47;0.33;;;;;;;17.13;57.55;100487.91;5070069;28;20614;-75
2022/05/27 12:04:31;;;;;;;1.47;1.07;;;;;;;17.39;56.33;100505.91;5071624;28;20177;-73
2022/05/27 12:06:59;;;;;;;0.57;0.57;;;;;;;17.26;54.81;100496.91;5071513;28;20247;-73